AirNav   Pilot Hours Calculator
 
 815 users online  

3FL0 Mount Royal Airport
Welaka, Florida, USA

GOING TO WELAKA?


FAA INFORMATION EFFECTIVE 26 MARCH 2020

Location

FAA Identifier: 3FL0
Lat/Long: 29-26-09.8900N 081-39-24.2800W
29-26.164833N 081-39.404667W
29.4360806,-81.6567444
(estimated)
Elevation: 41 ft. / 12 m (estimated)
Variation: 04W (1995)
From city: 3 miles S of WELAKA, FL
Time zone: UTC -4 (UTC -5 during Standard Time)
Zip code: 32193

Airport Operations

Airport use: Private use. Permission required prior to landing
Activation date: 03/1999
Control tower: no
ARTCC: JACKSONVILLE CENTER
FSS: GAINESVILLE FLIGHT SERVICE STATION
Attendance: UNATNDD
Wind indicator: yes
Segmented circle: no
Lights: SS-SR

Airport Communications

WX AWOS-3 at 28J (13 nm N): 119.925 (386-312-2212)

Nearby radio navigation aids

VOR radial/distance  VOR name  Freq  Var
OMNr286/29.5ORMOND BEACH VORTAC112.6000E
OCFr062/33.6OCALA VORTAC113.7000E
SGJr215/35.6ST AUGUSTINE VOR/DME109.4006W
GNVr120/35.6GATORS VORTAC116.2004W

 
NDB name  Hdg/Dist  Freq  Var  ID
REYNOLDS187/31.933807WRYD .-. -.-- -..

Airport Services

Runway Information

Runway 8/26

Dimensions: 3000 x 50 ft. / 914 x 15 m
Surface: asphalt, in good condition
Runway edge lights: medium intensity
RUNWAY 8  RUNWAY 26
Traffic pattern: leftleft
Displaced threshold: 500 ft.no
Obstructions: 50 ft. trees, 300 ft. from runwaynone

Airport Ownership and Management from official FAA records

Ownership: Privately-owned
Owner: MRAPPOA
111 INDIAN MOUND DR
CRESCENT CITY, FL 32112
Phone 386-559-2811
MRAPPOA - MT ROYAL AIRPARK PROPERTY OWNERS ASSOC.
Manager: MARSHALL TETTERTON
371 TIMUCUEN TRAIL
CRESCENT CITY, FL 32112
Phone (386) 872-0106

Airport Operational Statistics

Aircraft based on the field: 16
Single engine airplanes: 15
Ultralights: 1
    

Additional Remarks

CTAF 123.15
FOR CD CTC JACKSONVILLE APCH AT 904-741-0284.

Instrument Procedures

There are no published instrument procedures at 3FL0.

Some nearby airports with instrument procedures:

28J - Palatka Municipal Airport - Lt. Kay Larkin Field (13 nm N)
KFIN - Flagler Executive Airport (24 nm E)
KOMN - Ormond Beach Municipal Airport (30 nm E)
KDED - DeLand Municipal Airport-Sidney H Taylor Field (30 nm SE)
X23 - Umatilla Municipal Airport (31 nm S)
 
Loc | Ops | Rwys | IFR | FBO | Links
Com | Nav | Svcs | Stats | Notes
Area around 3FL0 (Mount Royal Airport)
 
Road maps at: MapQuest Bing Google
 
Aerial photo
WARNING: Photo may not be current or correct
Aerial photo of 3FL0 (Mount Royal Airport)
Photo taken 11-Feb-2007

Do you have a better or more recent aerial photo of Mount Royal Airport that you would like to share? If so, please send us your photo.

 
Sectional chart

 
Airport distance calculator
Flying to Mount Royal Airport? Find the distance to fly.

From to 3FL0

Sunrise and sunset
Times for 03-Apr-2020
 Local
(UTC-4)
 Zulu
(UTC)
Morning civil twilight06:5010:50
Sunrise07:1411:14
Sunset19:4623:46
Evening civil twilight20:1000:10

Current date and time
Zulu (UTC)  04-Apr-2020 00:21:07
Local (UTC-4)  03-Apr-2020 20:21:07
 
METAR
K28J 
13nm N 
032355Z AUTO 09005KT 10SM CLR 19/10 A2996 RMK AO2
KFIN 
23nm E 
032355Z AUTO 11003KT 10SM CLR 19/13 A2996 RMK AO2 T01860125 10237 20186
TAF
KDAB 
34nm SE 
031737Z 0318/0418 06009KT P6SM FEW045 FEW250 FM040300 VRB03KT P6SM SCT150 SCT250 FM041600 12005KT P6SM FEW060
KGNV 
36nm NW 
031722Z 0318/0418 26004KT P6SM SCT250
KSGJ 
36nm NE 
031722Z 0318/0418 09008KT P6SM SCT250= TAF KSSI 031722Z 0318/0418 12007KT P6SM SCT250
KLEE 
38nm S 
031737Z 0318/0418 VRB05KT P6SM FEW250 FM040300 VRB03KT P6SM FEW150 SCT250
NOTAMs
Click for the latest NOTAMs
NOTAMs are issued by the DoD/FAA and will open in a separate window not controlled by AirNav.

 

 
 

Would you like to see your business listed on this page?

 If your business provides an interesting product or service to pilots, flight crews, aircraft, or users of the Mount Royal Airport, you should consider listing it here.  To start the listing process, click on the button below
 
Add a business
 

Other Pages about Mount Royal Airport

Update a link
 
Copyright © AirNav, LLC. All rights reserved. Privacy Policy  Contact